createdAt,value
2018-09-17T00:01:32.553Z,6.70
2018-09-17T00:04:00.750Z,6.30
2018-09-17T00:06:28.998Z,9.17
2018-09-17T00:08:57.214Z,6.97
2018-09-17T00:11:25.437Z,6.20
2018-09-17T00:13:53.654Z,6.17
2018-09-17T00:16:21.858Z,9.13
2018-09-17T00:18:50.073Z,7.00
2018-09-17T00:21:18.273Z,7.17
2018-09-17T00:23:46.499Z,6.20
2018-09-17T00:26:14.821Z,5.63
2018-09-17T00:28:43.053Z,6.73
2018-09-17T00:31:11.261Z,6.30
2018-09-17T00:33:39.474Z,6.87
2018-09-17T00:36:07.684Z,7.63
2018-09-17T00:38:36.032Z,5.47
2018-09-17T00:41:04.273Z,5.90
2018-09-17T00:43:32.495Z,6.47
2018-09-17T00:46:00.721Z,6.10
2018-09-17T00:48:28.935Z,5.63
2018-09-17T00:50:57.398Z,6.50
2018-09-17T00:53:25.606Z,7.47
2018-09-17T00:55:53.818Z,9.33
2018-09-17T00:58:22.034Z,7.33
2018-09-17T01:00:50.458Z,8.50
2018-09-17T01:03:18.708Z,7.17
2018-09-17T01:05:46.942Z,5.40
2018-09-17T01:08:15.146Z,6.17
2018-09-17T01:10:43.394Z,6.47
2018-09-17T01:13:11.627Z,6.80
2018-09-17T01:15:39.849Z,5.73
2018-09-17T01:18:08.075Z,6.53
2018-09-17T01:20:36.337Z,8.43
2018-09-17T01:23:04.547Z,7.77
2018-09-17T01:25:32.787Z,7.70
2018-09-17T01:28:01.018Z,9.03
2018-09-17T01:30:29.248Z,7.77
2018-09-17T01:32:57.441Z,6.60
2018-09-17T01:35:25.640Z,7.63
2018-09-17T01:37:53.882Z,9.50
2018-09-17T01:40:22.077Z,6.93
2018-09-17T01:42:50.281Z,8.80
2018-09-17T01:45:18.514Z,6.07
2018-09-17T01:47:46.725Z,7.77
2018-09-17T01:50:14.938Z,7.73
2018-09-17T01:52:43.148Z,5.57
2018-09-17T01:55:11.400Z,5.80
2018-09-17T01:57:39.610Z,6.27
2018-09-17T02:00:07.853Z,6.73
2018-09-17T02:02:36.061Z,7.33
2018-09-17T02:05:04.305Z,6.83
2018-09-17T02:07:32.514Z,8.73
2018-09-17T02:10:00.813Z,6.47
2018-09-17T02:12:28.957Z,8.40
2018-09-17T02:14:57.179Z,8.87
2018-09-17T02:17:25.430Z,7.13
2018-09-17T02:19:53.702Z,6.17
2018-09-17T02:22:21.927Z,7.03
2018-09-17T02:24:50.166Z,8.07
2018-09-17T02:27:18.402Z,7.33
2018-09-17T02:29:46.633Z,8.00
2018-09-17T02:32:14.833Z,9.00
2018-09-17T02:34:43.061Z,8.13
2018-09-17T02:37:11.274Z,6.43
2018-09-17T02:39:39.535Z,9.23
2018-09-17T02:42:08.066Z,7.80
2018-09-17T02:44:36.558Z,7.27
2018-09-17T02:47:05.110Z,6.80
2018-09-17T02:49:33.337Z,8.70
2018-09-17T02:52:01.554Z,7.53
2018-09-17T02:54:29.759Z,7.03
2018-09-17T02:56:57.973Z,7.70
2018-09-17T02:59:26.214Z,7.53
2018-09-17T03:01:54.422Z,8.23
2018-09-17T03:04:22.634Z,7.47
2018-09-17T03:06:50.850Z,8.60
2018-09-17T03:09:19.091Z,11.57
2018-09-17T03:11:47.738Z,8.00
2018-09-17T03:14:16.009Z,7.57
2018-09-17T03:16:55.586Z,6.93
2018-09-17T03:19:23.869Z,6.80
2018-09-17T03:21:52.094Z,7.07
2018-09-17T03:24:20.332Z,7.80
2018-09-17T03:26:48.593Z,8.77
2018-09-17T03:29:16.819Z,11.10
2018-09-17T03:31:45.027Z,8.83
2018-09-17T03:34:13.310Z,8.80
2018-09-17T03:36:41.523Z,9.57
2018-09-17T03:39:09.725Z,9.07
2018-09-17T03:41:37.949Z,10.63
2018-09-17T03:44:06.189Z,7.67
2018-09-17T03:46:34.406Z,9.27
2018-09-17T03:49:02.613Z,13.60
2018-09-17T03:51:30.845Z,10.33
2018-09-17T03:53:59.053Z,10.13
2018-09-17T03:56:27.267Z,10.93
2018-09-17T03:58:55.469Z,12.17
2018-09-17T04:01:23.681Z,9.80
2018-09-17T04:03:51.921Z,12.53
2018-09-17T04:06:20.141Z,9.57
2018-09-17T04:08:48.369Z,7.53
2018-09-17T04:11:16.577Z,9.00
2018-09-17T04:13:44.810Z,10.27
2018-09-17T04:16:13.060Z,8.97
2018-09-17T04:18:41.266Z,8.80
2018-09-17T04:21:09.542Z,8.23
2018-09-17T04:23:38.554Z,9.23
2018-09-17T04:26:09.201Z,9.33
2018-09-17T04:28:37.941Z,11.03
2018-09-17T04:31:06.297Z,10.77
2018-09-17T04:33:36.541Z,12.50
2018-09-17T04:36:04.805Z,11.60
2018-09-17T04:38:33.079Z,10.33
2018-09-17T04:41:01.293Z,11.37
2018-09-17T04:43:29.556Z,10.60
2018-09-17T04:45:57.773Z,20.83
2018-09-17T04:48:26.017Z,10.00
2018-09-17T04:50:54.221Z,12.50
2018-09-17T04:53:22.473Z,13.10
2018-09-17T04:55:50.713Z,14.17
2018-09-17T04:58:18.949Z,11.70
2018-09-17T05:00:47.179Z,12.77
2018-09-17T05:03:15.433Z,12.00
2018-09-17T05:05:43.654Z,13.17
2018-09-17T05:08:11.874Z,13.07
2018-09-17T05:10:40.138Z,11.77
2018-09-17T05:13:08.405Z,12.67
2018-09-17T05:15:36.589Z,13.53
2018-09-17T05:18:04.813Z,10.20
2018-09-17T05:20:33.071Z,11.50
2018-09-17T05:23:01.283Z,14.17
2018-09-17T05:25:29.622Z,14.70
2018-09-17T05:27:57.862Z,15.73
2018-09-17T05:30:26.078Z,12.93
2018-09-17T05:32:54.311Z,14.43
2018-09-17T05:35:22.525Z,11.33
2018-09-17T05:37:50.806Z,9.97
2018-09-17T05:40:19.118Z,12.00
2018-09-17T05:42:47.396Z,10.10
2018-09-17T05:45:15.623Z,12.03
2018-09-17T05:47:43.832Z,12.20
2018-09-17T05:50:12.071Z,11.33
2018-09-17T05:52:40.268Z,11.87
2018-09-17T05:55:08.529Z,12.60
2018-09-17T05:57:36.741Z,15.63
2018-09-17T06:00:06.311Z,12.60
2018-09-17T06:02:34.531Z,13.93
2018-09-17T06:05:02.798Z,16.23
2018-09-17T06:07:31.045Z,13.13
2018-09-17T06:09:59.314Z,13.70
2018-09-17T06:12:27.529Z,13.00
2018-09-17T06:14:55.766Z,15.53
2018-09-17T06:17:24.026Z,16.67
2018-09-17T06:19:52.197Z,13.63
2018-09-17T06:22:20.410Z,15.20
2018-09-17T06:24:48.638Z,10.77
2018-09-17T06:27:16.845Z,14.23
2018-09-17T06:29:45.078Z,11.37
2018-09-17T06:32:13.315Z,11.37
2018-09-17T06:34:41.523Z,13.03
2018-09-17T06:37:09.758Z,12.10
2018-09-17T06:39:37.965Z,22.67
2018-09-17T06:42:06.192Z,11.90
2018-09-17T06:44:34.408Z,15.23
2018-09-17T06:47:02.633Z,16.57
2018-09-17T06:49:30.858Z,11.70
2018-09-17T06:51:59.086Z,18.37
2018-09-17T06:54:27.303Z,15.90
2018-09-17T06:56:55.556Z,11.50
2018-09-17T06:59:23.754Z,11.63
2018-09-17T07:01:51.998Z,17.93
2018-09-17T07:04:20.228Z,11.03
2018-09-17T07:06:48.477Z,11.40
2018-09-17T07:09:16.689Z,12.10
2018-09-17T07:11:44.941Z,12.07
2018-09-17T07:14:13.261Z,11.13
2018-09-17T07:16:41.503Z,10.27
2018-09-17T07:19:09.740Z,10.20
2018-09-17T07:21:37.939Z,11.13
2018-09-17T07:24:06.316Z,10.07
2018-09-17T07:26:35.613Z,11.07
2018-09-17T07:29:03.977Z,11.30
2018-09-17T07:31:32.199Z,11.93
2018-09-17T07:34:01.470Z,12.00
2018-09-17T07:36:29.887Z,11.03
2018-09-17T07:38:58.035Z,9.40
2018-09-17T07:41:26.336Z,11.30
2018-09-17T07:43:54.560Z,10.73
2018-09-17T07:46:23.870Z,11.57
2018-09-17T07:48:52.082Z,11.17
2018-09-17T07:51:21.344Z,13.00
2018-09-17T07:53:49.646Z,9.73
2018-09-17T07:56:17.894Z,13.20
2018-09-17T07:58:46.228Z,12.83
2018-09-17T08:01:14.405Z,10.03
2018-09-17T08:03:42.639Z,8.63
2018-09-17T08:06:11.657Z,10.47
2018-09-17T08:08:39.869Z,8.90
2018-09-17T08:11:08.107Z,13.83
2018-09-17T08:13:36.414Z,11.57
2018-09-17T08:16:04.666Z,13.50
2018-09-17T08:18:32.904Z,11.17
2018-09-17T08:21:01.133Z,8.67
2018-09-17T08:23:30.071Z,9.23
2018-09-17T08:25:58.283Z,9.60
2018-09-17T08:28:26.498Z,8.33
2018-09-17T08:30:54.779Z,11.80
2018-09-17T08:33:22.994Z,11.70
2018-09-17T08:35:51.275Z,15.13
2018-09-17T08:38:19.502Z,10.97
2018-09-17T08:40:47.771Z,10.90
2018-09-17T08:43:17.020Z,8.67
2018-09-17T08:45:46.266Z,9.13
2018-09-17T08:48:14.482Z,7.77
2018-09-17T08:50:42.717Z,10.63
2018-09-17T08:53:11.024Z,7.93
2018-09-17T08:55:45.108Z,8.03
2018-09-17T08:58:18.742Z,11.83
2018-09-17T09:00:52.126Z,9.97
2018-09-17T09:03:25.613Z,6.70
2018-09-17T09:05:59.231Z,8.23
2018-09-17T09:08:27.447Z,9.17
2018-09-17T09:11:00.873Z,6.63
2018-09-17T09:13:49.677Z,7.60
2018-09-17T09:16:17.951Z,7.30
2018-09-17T09:18:46.181Z,6.97
2018-09-17T09:21:14.394Z,7.60
2018-09-17T09:23:42.709Z,4.93
2018-09-17T09:26:10.965Z,8.50
2018-09-17T09:28:39.190Z,7.50
2018-09-17T09:31:07.450Z,10.67
2018-09-17T09:33:35.678Z,6.43
2018-09-17T09:36:03.932Z,8.27
2018-09-17T09:38:32.188Z,9.10
2018-09-17T09:41:00.390Z,11.33
2018-09-17T09:43:28.757Z,5.60
2018-09-17T09:45:56.989Z,6.83
2018-09-17T09:48:25.206Z,6.53
2018-09-17T09:50:53.462Z,5.23
2018-09-17T09:53:21.667Z,5.13
2018-09-17T09:55:49.903Z,8.00
2018-09-17T09:58:18.139Z,6.27
2018-09-17T10:00:51.754Z,5.70
2018-09-17T10:03:26.885Z,5.13
2018-09-17T10:05:55.146Z,7.30
2018-09-17T10:08:23.421Z,9.63
2018-09-17T10:10:57.046Z,6.97
2018-09-17T10:13:30.553Z,6.47
2018-09-17T10:15:58.911Z,7.30
2018-09-17T10:18:32.493Z,3.53
2018-09-17T10:21:00.709Z,4.23
2018-09-17T10:23:29.002Z,4.00
2018-09-17T10:25:57.221Z,8.43
2018-09-17T10:28:25.439Z,5.60
2018-09-17T10:30:53.781Z,5.60
2018-09-17T10:33:23.081Z,5.60
2018-09-17T10:35:51.343Z,4.93
2018-09-17T10:38:19.581Z,4.53
2018-09-17T10:40:47.818Z,5.03
2018-09-17T10:43:16.135Z,5.40
2018-09-17T10:45:45.450Z,3.13
2018-09-17T10:48:13.732Z,4.50
2018-09-17T10:50:41.973Z,5.70
2018-09-17T10:53:10.214Z,11.83
2018-09-17T10:55:38.457Z,5.83
2018-09-17T10:58:06.845Z,3.50
2018-09-17T11:00:35.065Z,4.27
2018-09-17T11:03:03.387Z,12.13
2018-09-17T11:05:31.672Z,6.30
2018-09-17T11:08:00.951Z,5.50
2018-09-17T11:10:29.275Z,5.30
2018-09-17T11:12:57.514Z,5.20
2018-09-17T11:15:30.834Z,4.50
2018-09-17T11:17:59.053Z,5.00
2018-09-17T11:20:27.386Z,5.60
2018-09-17T11:22:55.623Z,4.37
2018-09-17T11:25:23.850Z,5.10
2018-09-17T11:27:52.089Z,6.13
2018-09-17T11:30:20.398Z,4.40
2018-09-17T11:32:49.334Z,9.80
2018-09-17T11:35:17.565Z,4.57
2018-09-17T11:37:46.077Z,4.87
2018-09-17T11:40:14.325Z,5.30
2018-09-17T11:42:42.624Z,8.07
2018-09-17T11:45:10.863Z,6.00
2018-09-17T11:47:39.115Z,8.07
2018-09-17T11:50:07.388Z,5.87
2018-09-17T11:52:35.677Z,9.37
2018-09-17T11:55:04.282Z,5.77
2018-09-17T11:57:32.515Z,8.20
2018-09-17T12:00:00.819Z,7.40
2018-09-17T12:02:33.744Z,5.17
2018-09-17T12:05:08.805Z,7.50
2018-09-17T12:07:41.944Z,9.43
2018-09-17T12:10:10.972Z,7.80
2018-09-17T12:12:39.666Z,6.37
2018-09-17T12:15:08.417Z,6.87
2018-09-17T12:17:36.971Z,7.57
2018-09-17T12:20:05.331Z,7.50
2018-09-17T12:22:33.545Z,9.27
2018-09-17T12:25:01.767Z,6.40
2018-09-17T12:27:29.999Z,6.33
2018-09-17T12:29:58.230Z,7.73
2018-09-17T12:32:26.459Z,7.50
2018-09-17T12:34:54.766Z,6.27
2018-09-17T12:37:22.993Z,5.20
2018-09-17T12:39:51.227Z,5.53
2018-09-17T12:42:19.462Z,10.23
2018-09-17T12:44:47.678Z,6.43
2018-09-17T12:47:15.918Z,8.03
2018-09-17T12:49:44.147Z,5.33
2018-09-17T12:52:12.365Z,5.63
2018-09-17T12:54:40.598Z,7.23
2018-09-17T12:57:08.860Z,6.87
2018-09-17T12:59:37.032Z,9.13
2018-09-17T13:02:05.237Z,5.53
2018-09-17T13:04:33.461Z,10.37
2018-09-17T13:07:01.680Z,5.07
2018-09-17T13:09:29.902Z,7.47
2018-09-17T13:11:58.158Z,5.20
2018-09-17T13:14:26.373Z,9.17
2018-09-17T13:16:54.606Z,7.27
2018-09-17T13:19:22.840Z,6.37
2018-09-17T13:21:51.078Z,5.20
2018-09-17T13:24:19.302Z,8.10
2018-09-17T13:26:47.573Z,10.37
2018-09-17T13:29:15.784Z,5.17
2018-09-17T13:31:44.021Z,10.90
2018-09-17T13:34:12.245Z,7.87
2018-09-17T13:36:40.478Z,5.80
2018-09-17T13:39:08.710Z,6.23
2018-09-17T13:41:36.957Z,9.77
2018-09-17T13:44:05.257Z,8.57
2018-09-17T13:46:33.471Z,6.13
2018-09-17T13:49:01.761Z,5.63
2018-09-17T13:51:29.891Z,6.50
2018-09-17T13:53:58.163Z,8.17
2018-09-17T13:56:26.452Z,6.60
2018-09-17T13:58:54.667Z,5.43
2018-09-17T14:01:22.874Z,10.40
2018-09-17T14:03:51.103Z,6.37
2018-09-17T14:06:19.396Z,4.07
2018-09-17T14:08:47.612Z,5.87
2018-09-17T14:11:15.889Z,4.57
2018-09-17T14:13:44.105Z,7.80
2018-09-17T14:16:12.373Z,6.77
2018-09-17T14:18:41.703Z,7.90
2018-09-17T14:21:09.921Z,5.17
2018-09-17T14:23:38.256Z,9.33
2018-09-17T14:26:07.598Z,3.90
2018-09-17T14:28:35.752Z,5.43
2018-09-17T14:31:03.980Z,3.37
2018-09-17T14:33:38.201Z,6.37
2018-09-17T14:36:06.430Z,8.00
2018-09-17T14:38:34.669Z,4.93
2018-09-17T14:41:02.892Z,3.40
2018-09-17T14:43:31.131Z,4.77
2018-09-17T14:45:59.806Z,4.40
2018-09-17T14:48:27.937Z,3.60
2018-09-17T14:50:56.180Z,6.00
2018-09-17T14:53:24.449Z,7.20
2018-09-17T14:55:52.654Z,3.37
2018-09-17T14:58:21.025Z,2.50
2018-09-17T15:00:49.270Z,4.57
2018-09-17T15:03:17.485Z,3.97
2018-09-17T15:05:45.812Z,4.47
2018-09-17T15:08:14.127Z,3.70
2018-09-17T15:10:42.265Z,7.70
2018-09-17T15:13:10.531Z,3.47
2018-09-17T15:15:44.150Z,6.07
2018-09-17T15:18:13.844Z,4.80
2018-09-17T15:20:42.118Z,3.20
2018-09-17T15:23:10.558Z,4.40
2018-09-17T15:25:39.035Z,3.27
2018-09-17T15:28:07.630Z,4.60
2018-09-17T15:30:38.167Z,4.93
2018-09-17T15:33:06.605Z,2.67
2018-09-17T15:35:34.878Z,3.50
2018-09-17T15:38:03.164Z,3.97
2018-09-17T15:40:31.576Z,2.47
2018-09-17T15:42:59.759Z,2.80
2018-09-17T15:45:28.085Z,2.40
2018-09-17T15:47:56.305Z,5.20
2018-09-17T15:50:25.554Z,6.33
2018-09-17T15:52:53.835Z,7.73
2018-09-17T15:55:22.138Z,5.07
2018-09-17T15:57:50.560Z,4.80
2018-09-17T16:00:18.806Z,4.20
2018-09-17T16:02:47.187Z,4.20
2018-09-17T16:05:16.437Z,3.10
2018-09-17T16:07:44.735Z,3.13
2018-09-17T16:10:14.656Z,4.73
2018-09-17T16:12:44.096Z,4.20
2018-09-17T16:15:13.714Z,4.63
2018-09-17T16:17:42.645Z,4.87
2018-09-17T16:20:10.963Z,3.60
2018-09-17T16:22:40.248Z,4.60
2018-09-17T16:25:15.534Z,6.93
2018-09-17T16:27:45.009Z,5.73
2018-09-17T16:30:14.620Z,3.10
2018-09-17T16:32:42.821Z,5.23
2018-09-17T16:35:11.050Z,5.33
2018-09-17T16:37:39.445Z,4.03
2018-09-17T16:40:08.830Z,6.60
2018-09-17T16:42:37.186Z,3.40
2018-09-17T16:45:13.256Z,4.20
2018-09-17T16:47:41.830Z,5.33
2018-09-17T16:50:11.977Z,6.70
2018-09-17T16:52:40.219Z,3.93
2018-09-17T16:55:08.542Z,7.27
2018-09-17T16:57:36.791Z,3.83
2018-09-17T17:00:05.122Z,4.60
2018-09-17T17:02:33.329Z,3.27
2018-09-17T17:05:01.757Z,3.43
2018-09-17T17:07:29.953Z,7.37
2018-09-17T17:09:58.243Z,5.87
2018-09-17T17:12:27.025Z,3.77
2018-09-17T17:14:55.266Z,4.60
2018-09-17T17:17:23.506Z,4.60
2018-09-17T17:19:52.265Z,4.77
2018-09-17T17:22:21.217Z,6.67
2018-09-17T17:24:49.880Z,7.40
2018-09-17T17:27:19.656Z,5.77
2018-09-17T17:29:48.358Z,5.30
2018-09-17T17:32:16.928Z,8.70
2018-09-17T17:34:45.712Z,13.97
2018-09-17T17:37:14.445Z,10.67
2018-09-17T17:39:43.224Z,16.97
2018-09-17T17:42:11.410Z,6.67
2018-09-17T17:44:39.781Z,4.20
2018-09-17T17:47:07.994Z,3.73
2018-09-17T17:49:36.229Z,6.17
2018-09-17T17:52:04.558Z,5.33
2018-09-17T17:54:32.884Z,6.27
2018-09-17T17:57:00.994Z,5.13
2018-09-17T17:59:29.285Z,6.47
2018-09-17T18:01:57.531Z,11.40
2018-09-17T18:04:25.928Z,8.53
2018-09-17T18:06:54.027Z,9.83
2018-09-17T18:09:22.415Z,6.00
2018-09-17T18:11:52.590Z,6.70
2018-09-17T18:14:20.828Z,5.53
2018-09-17T18:16:49.070Z,7.47
2018-09-17T18:19:17.445Z,6.23
2018-09-17T18:21:45.807Z,7.20
2018-09-17T18:24:14.021Z,7.37
2018-09-17T18:26:42.400Z,4.77
2018-09-17T18:29:10.614Z,5.30
2018-09-17T18:31:38.833Z,8.70
2018-09-17T18:34:07.383Z,9.93
2018-09-17T18:36:35.667Z,11.40
2018-09-17T18:39:04.679Z,8.77
2018-09-17T18:41:33.022Z,9.40
2018-09-17T18:44:01.321Z,7.73
2018-09-17T18:46:29.611Z,10.40
2018-09-17T18:48:57.830Z,9.70
2018-09-17T18:51:26.095Z,7.27
2018-09-17T18:53:54.351Z,13.97
2018-09-17T18:56:22.796Z,6.93
2018-09-17T18:58:51.025Z,14.53
2018-09-17T19:01:19.249Z,6.67
2018-09-17T19:03:47.523Z,10.27
2018-09-17T19:06:15.748Z,5.83
2018-09-17T19:08:46.113Z,6.37
2018-09-17T19:11:14.357Z,15.53
2018-09-17T19:13:46.717Z,8.60
2018-09-17T19:16:14.977Z,9.30
2018-09-17T19:18:43.440Z,8.33
2018-09-17T19:21:11.884Z,8.23
2018-09-17T19:23:45.315Z,10.47
2018-09-17T19:26:13.592Z,8.63
2018-09-17T19:29:44.767Z,8.40
2018-09-17T19:32:13.096Z,11.80
2018-09-17T19:34:41.210Z,6.80
2018-09-17T19:37:15.610Z,11.10
2018-09-17T19:39:49.198Z,7.87
2018-09-17T19:42:17.468Z,9.60
2018-09-17T19:44:50.801Z,6.80
2018-09-17T19:47:19.015Z,7.80
2018-09-17T19:49:47.287Z,7.87
2018-09-17T19:52:19.285Z,8.23
2018-09-17T19:54:48.075Z,10.47
2018-09-17T19:57:21.526Z,7.27
2018-09-17T19:59:54.094Z,8.43
2018-09-17T20:02:22.677Z,7.40
2018-09-17T20:04:56.214Z,11.10
2018-09-17T20:07:25.701Z,9.53
2018-09-17T20:09:54.323Z,8.43
2018-09-17T20:12:23.810Z,7.83
2018-09-17T20:14:52.125Z,7.37
2018-09-17T20:17:20.615Z,6.63
2018-09-17T20:19:48.851Z,5.57
2018-09-17T20:22:19.077Z,6.67
2018-09-17T20:24:48.977Z,7.77
2018-09-17T20:27:18.059Z,6.30
2018-09-17T20:29:47.169Z,6.20
2018-09-17T20:32:16.807Z,9.00
2018-09-17T20:34:47.038Z,6.87
2018-09-17T20:37:16.682Z,8.57
2018-09-17T20:39:46.877Z,9.63
2018-09-17T20:42:15.994Z,7.97
2018-09-17T20:44:45.560Z,8.13
2018-09-17T20:47:14.725Z,7.03
2018-09-17T20:49:43.929Z,8.70
2018-09-17T20:52:13.129Z,6.97
2018-09-17T20:54:42.384Z,12.37
2018-09-17T20:57:11.727Z,8.13
2018-09-17T20:59:39.956Z,7.87
2018-09-17T21:02:08.199Z,8.73
2018-09-17T21:04:36.514Z,8.37
2018-09-17T21:07:04.906Z,8.83
2018-09-17T21:09:33.154Z,7.70
2018-09-17T21:12:01.600Z,6.87
2018-09-17T21:14:29.833Z,10.53
2018-09-17T21:16:58.043Z,10.30
2018-09-17T21:19:26.354Z,6.00
2018-09-17T21:21:54.543Z,9.10
2018-09-17T21:24:22.715Z,8.10
2018-09-17T21:26:50.940Z,6.33
2018-09-17T21:29:19.183Z,8.67
2018-09-17T21:31:47.455Z,7.73
2018-09-17T21:34:15.763Z,4.90
2018-09-17T21:36:44.013Z,10.07
2018-09-17T21:39:14.640Z,6.13
2018-09-17T21:41:42.866Z,5.10
2018-09-17T21:44:11.113Z,9.47
2018-09-17T21:46:39.491Z,9.10
2018-09-17T21:49:07.778Z,8.30
2018-09-17T21:51:36.026Z,11.17
2018-09-17T21:54:04.267Z,6.90
2018-09-17T21:56:32.498Z,7.50
2018-09-17T21:59:00.723Z,6.17
2018-09-17T22:01:29.009Z,8.90
2018-09-17T22:03:57.270Z,8.07
2018-09-17T22:06:25.517Z,5.77
2018-09-17T22:08:53.736Z,6.10
2018-09-17T22:11:22.090Z,7.17
2018-09-17T22:13:50.367Z,6.33
2018-09-17T22:16:18.742Z,10.00
2018-09-17T22:18:47.018Z,10.10
2018-09-17T22:21:15.240Z,8.73
2018-09-17T22:23:43.517Z,6.40
2018-09-17T22:26:11.756Z,8.03
2018-09-17T22:28:40.061Z,4.23
2018-09-17T22:31:08.379Z,6.40
2018-09-17T22:33:36.636Z,7.37
2018-09-17T22:36:04.914Z,8.70
2018-09-17T22:38:33.127Z,6.73
2018-09-17T22:41:01.373Z,6.30
2018-09-17T22:43:29.605Z,7.03
2018-09-17T22:45:57.874Z,7.53
2018-09-17T22:48:26.131Z,5.90
2018-09-17T22:50:54.362Z,7.63
2018-09-17T22:53:22.805Z,8.97
2018-09-17T22:55:51.054Z,7.90
2018-09-17T22:58:19.265Z,9.83
2018-09-17T23:00:47.503Z,6.23
2018-09-17T23:03:15.742Z,10.27
2018-09-17T23:05:43.954Z,10.53
2018-09-17T23:08:12.196Z,8.63
2018-09-17T23:10:40.403Z,9.50
2018-09-17T23:13:08.650Z,9.73
2018-09-17T23:15:36.866Z,8.53
2018-09-17T23:18:05.142Z,7.73
2018-09-17T23:20:33.341Z,7.50
2018-09-17T23:23:01.632Z,7.47
2018-09-17T23:25:29.869Z,7.50
2018-09-17T23:27:58.083Z,5.50
2018-09-17T23:30:26.305Z,5.80
2018-09-17T23:32:54.510Z,9.90
2018-09-17T23:35:22.721Z,8.30
2018-09-17T23:37:50.943Z,8.97
2018-09-17T23:40:19.185Z,9.50
2018-09-17T23:42:47.393Z,7.53
2018-09-17T23:45:15.686Z,6.30
2018-09-17T23:47:43.917Z,5.73
2018-09-17T23:50:12.130Z,6.93
2018-09-17T23:52:40.361Z,8.80
2018-09-17T23:55:08.581Z,6.93
2018-09-17T23:57:36.827Z,7.53
